sensor_id;sensor_type;location;lat;lon;timestamp;P1;durP1;ratioP1;P2;durP2;ratioP2
19251;SDS011;9760;50.944;5.304;2023-04-03T00:01:11;8.43;;;4.83;;
19251;SDS011;9760;50.944;5.304;2023-04-03T00:03:38;11.10;;;5.40;;
19251;SDS011;9760;50.944;5.304;2023-04-03T00:06:05;8.00;;;5.20;;
19251;SDS011;9760;50.944;5.304;2023-04-03T00:08:32;7.97;;;4.83;;
19251;SDS011;9760;50.944;5.304;2023-04-03T00:10:58;17.63;;;5.30;;
19251;SDS011;9760;50.944;5.304;2023-04-03T00:13:24;11.60;;;5.30;;
19251;SDS011;9760;50.944;5.304;2023-04-03T00:15:50;12.87;;;5.60;;
19251;SDS011;9760;50.944;5.304;2023-04-03T00:18:16;8.90;;;4.93;;
19251;SDS011;9760;50.944;5.304;2023-04-03T00:20:42;8.13;;;5.07;;
19251;SDS011;9760;50.944;5.304;2023-04-03T00:23:08;18.40;;;5.10;;
19251;SDS011;9760;50.944;5.304;2023-04-03T00:25:34;8.70;;;4.70;;
19251;SDS011;9760;50.944;5.304;2023-04-03T00:28:00;12.00;;;5.43;;
19251;SDS011;9760;50.944;5.304;2023-04-03T00:30:27;9.67;;;5.57;;
19251;SDS011;9760;50.944;5.304;2023-04-03T00:32:53;10.87;;;5.10;;
19251;SDS011;9760;50.944;5.304;2023-04-03T00:35:19;9.77;;;5.23;;
19251;SDS011;9760;50.944;5.304;2023-04-03T00:37:46;11.20;;;5.63;;
19251;SDS011;9760;50.944;5.304;2023-04-03T00:40:12;11.83;;;5.70;;
19251;SDS011;9760;50.944;5.304;2023-04-03T00:42:40;8.77;;;5.10;;
19251;SDS011;9760;50.944;5.304;2023-04-03T00:47:35;10.47;;;5.30;;
19251;SDS011;9760;50.944;5.304;2023-04-03T00:50:03;14.20;;;5.70;;
19251;SDS011;9760;50.944;5.304;2023-04-03T00:52:29;9.07;;;4.87;;
19251;SDS011;9760;50.944;5.304;2023-04-03T00:54:57;12.70;;;5.40;;
19251;SDS011;9760;50.944;5.304;2023-04-03T00:57:26;11.43;;;5.63;;
19251;SDS011;9760;50.944;5.304;2023-04-03T00:59:54;10.83;;;5.20;;
19251;SDS011;9760;50.944;5.304;2023-04-03T01:02:24;10.13;;;5.63;;
19251;SDS011;9760;50.944;5.304;2023-04-03T01:04:51;8.10;;;4.97;;
19251;SDS011;9760;50.944;5.304;2023-04-03T01:07:18;11.17;;;5.00;;
19251;SDS011;9760;50.944;5.304;2023-04-03T01:09:56;9.70;;;4.87;;
19251;SDS011;9760;50.944;5.304;2023-04-03T01:14:54;9.03;;;5.20;;
19251;SDS011;9760;50.944;5.304;2023-04-03T01:25:25;8.87;;;5.27;;
19251;SDS011;9760;50.944;5.304;2023-04-03T01:27:51;11.50;;;5.43;;
19251;SDS011;9760;50.944;5.304;2023-04-03T01:30:17;13.13;;;6.17;;
19251;SDS011;9760;50.944;5.304;2023-04-03T01:32:45;13.00;;;6.70;;
19251;SDS011;9760;50.944;5.304;2023-04-03T01:35:11;7.57;;;5.33;;
19251;SDS011;9760;50.944;5.304;2023-04-03T01:37:37;13.93;;;6.10;;
19251;SDS011;9760;50.944;5.304;2023-04-03T01:40:03;12.40;;;6.00;;
19251;SDS011;9760;50.944;5.304;2023-04-03T01:42:30;10.60;;;5.83;;
19251;SDS011;9760;50.944;5.304;2023-04-03T01:44:56;7.67;;;5.70;;
19251;SDS011;9760;50.944;5.304;2023-04-03T01:47:21;16.10;;;6.77;;
19251;SDS011;9760;50.944;5.304;2023-04-03T01:49:47;12.90;;;6.03;;
19251;SDS011;9760;50.944;5.304;2023-04-03T01:52:13;11.93;;;6.23;;
19251;SDS011;9760;50.944;5.304;2023-04-03T01:54:38;10.37;;;6.87;;
19251;SDS011;9760;50.944;5.304;2023-04-03T01:57:04;10.57;;;6.27;;
19251;SDS011;9760;50.944;5.304;2023-04-03T01:59:30;13.13;;;6.47;;
19251;SDS011;9760;50.944;5.304;2023-04-03T02:01:56;11.17;;;6.00;;
19251;SDS011;9760;50.944;5.304;2023-04-03T02:04:21;10.53;;;6.50;;
19251;SDS011;9760;50.944;5.304;2023-04-03T02:06:47;13.77;;;6.80;;
19251;SDS011;9760;50.944;5.304;2023-04-03T02:09:13;9.77;;;6.17;;
19251;SDS011;9760;50.944;5.304;2023-04-03T02:11:39;11.37;;;6.80;;
19251;SDS011;9760;50.944;5.304;2023-04-03T02:14:05;12.43;;;6.70;;
19251;SDS011;9760;50.944;5.304;2023-04-03T02:16:31;14.67;;;7.50;;
19251;SDS011;9760;50.944;5.304;2023-04-03T02:18:57;11.97;;;7.10;;
19251;SDS011;9760;50.944;5.304;2023-04-03T02:21:23;12.07;;;6.97;;
19251;SDS011;9760;50.944;5.304;2023-04-03T02:23:48;17.40;;;7.67;;
19251;SDS011;9760;50.944;5.304;2023-04-03T02:26:15;12.70;;;6.77;;
19251;SDS011;9760;50.944;5.304;2023-04-03T02:28:41;13.73;;;7.17;;
19251;SDS011;9760;50.944;5.304;2023-04-03T02:31:07;14.80;;;8.03;;
19251;SDS011;9760;50.944;5.304;2023-04-03T02:33:33;13.13;;;7.20;;
19251;SDS011;9760;50.944;5.304;2023-04-03T02:36:01;16.67;;;7.23;;
19251;SDS011;9760;50.944;5.304;2023-04-03T02:38:28;11.80;;;7.00;;
19251;SDS011;9760;50.944;5.304;2023-04-03T02:40:53;11.13;;;6.90;;
19251;SDS011;9760;50.944;5.304;2023-04-03T02:43:24;18.40;;;7.40;;
19251;SDS011;9760;50.944;5.304;2023-04-03T02:45:49;15.53;;;7.60;;
19251;SDS011;9760;50.944;5.304;2023-04-03T02:48:15;14.97;;;7.23;;
19251;SDS011;9760;50.944;5.304;2023-04-03T02:50:41;13.13;;;6.87;;
19251;SDS011;9760;50.944;5.304;2023-04-03T02:53:07;13.47;;;7.53;;
19251;SDS011;9760;50.944;5.304;2023-04-03T02:55:33;17.27;;;7.77;;
19251;SDS011;9760;50.944;5.304;2023-04-03T02:57:58;11.57;;;7.60;;
19251;SDS011;9760;50.944;5.304;2023-04-03T03:00:24;13.87;;;7.03;;
19251;SDS011;9760;50.944;5.304;2023-04-03T03:02:49;21.50;;;7.43;;
19251;SDS011;9760;50.944;5.304;2023-04-03T03:05:15;17.97;;;7.80;;
19251;SDS011;9760;50.944;5.304;2023-04-03T03:07:41;13.27;;;7.20;;
19251;SDS011;9760;50.944;5.304;2023-04-03T03:10:06;16.13;;;7.67;;
19251;SDS011;9760;50.944;5.304;2023-04-03T03:12:32;16.27;;;7.77;;
19251;SDS011;9760;50.944;5.304;2023-04-03T03:14:58;15.13;;;7.37;;
19251;SDS011;9760;50.944;5.304;2023-04-03T03:17:23;14.13;;;7.43;;
19251;SDS011;9760;50.944;5.304;2023-04-03T03:19:49;15.27;;;7.73;;
19251;SDS011;9760;50.944;5.304;2023-04-03T03:22:15;12.50;;;7.90;;
19251;SDS011;9760;50.944;5.304;2023-04-03T03:24:41;21.37;;;10.50;;
19251;SDS011;9760;50.944;5.304;2023-04-03T03:27:07;17.30;;;8.33;;
19251;SDS011;9760;50.944;5.304;2023-04-03T03:29:32;14.33;;;7.90;;
19251;SDS011;9760;50.944;5.304;2023-04-03T03:31:58;14.43;;;7.17;;
19251;SDS011;9760;50.944;5.304;2023-04-03T03:34:24;16.00;;;8.60;;
19251;SDS011;9760;50.944;5.304;2023-04-03T03:36:50;17.43;;;7.80;;
19251;SDS011;9760;50.944;5.304;2023-04-03T03:39:15;13.57;;;7.63;;
19251;SDS011;9760;50.944;5.304;2023-04-03T03:41:41;14.57;;;7.70;;
19251;SDS011;9760;50.944;5.304;2023-04-03T03:44:06;13.40;;;8.20;;
19251;SDS011;9760;50.944;5.304;2023-04-03T03:46:32;13.60;;;7.50;;
19251;SDS011;9760;50.944;5.304;2023-04-03T03:48:58;14.93;;;7.90;;
19251;SDS011;9760;50.944;5.304;2023-04-03T03:51:24;14.60;;;7.90;;
19251;SDS011;9760;50.944;5.304;2023-04-03T03:53:49;14.40;;;8.40;;
19251;SDS011;9760;50.944;5.304;2023-04-03T03:56:15;16.07;;;7.57;;
19251;SDS011;9760;50.944;5.304;2023-04-03T03:58:41;20.20;;;7.83;;
19251;SDS011;9760;50.944;5.304;2023-04-03T04:01:07;31.07;;;8.37;;
19251;SDS011;9760;50.944;5.304;2023-04-03T04:03:32;19.03;;;8.27;;
19251;SDS011;9760;50.944;5.304;2023-04-03T04:05:58;21.43;;;9.40;;
19251;SDS011;9760;50.944;5.304;2023-04-03T04:08:24;17.33;;;8.57;;
19251;SDS011;9760;50.944;5.304;2023-04-03T04:10:49;13.57;;;8.03;;
19251;SDS011;9760;50.944;5.304;2023-04-03T04:13:15;16.53;;;8.70;;
19251;SDS011;9760;50.944;5.304;2023-04-03T04:15:41;16.57;;;9.07;;
19251;SDS011;9760;50.944;5.304;2023-04-03T04:18:07;18.23;;;8.47;;
19251;SDS011;9760;50.944;5.304;2023-04-03T04:20:33;17.20;;;8.90;;
19251;SDS011;9760;50.944;5.304;2023-04-03T04:22:59;15.73;;;7.77;;
19251;SDS011;9760;50.944;5.304;2023-04-03T04:25:24;13.87;;;9.03;;
19251;SDS011;9760;50.944;5.304;2023-04-03T04:27:50;21.77;;;7.97;;
19251;SDS011;9760;50.944;5.304;2023-04-03T04:30:16;16.57;;;9.07;;
19251;SDS011;9760;50.944;5.304;2023-04-03T04:32:41;16.33;;;8.63;;
19251;SDS011;9760;50.944;5.304;2023-04-03T04:35:07;17.67;;;8.60;;
19251;SDS011;9760;50.944;5.304;2023-04-03T04:37:33;17.07;;;9.67;;
19251;SDS011;9760;50.944;5.304;2023-04-03T04:39:58;15.70;;;8.63;;
19251;SDS011;9760;50.944;5.304;2023-04-03T04:42:24;20.60;;;8.83;;
19251;SDS011;9760;50.944;5.304;2023-04-03T04:44:50;16.57;;;8.97;;
19251;SDS011;9760;50.944;5.304;2023-04-03T04:47:15;18.63;;;9.37;;
19251;SDS011;9760;50.944;5.304;2023-04-03T04:49:41;18.93;;;9.47;;
19251;SDS011;9760;50.944;5.304;2023-04-03T04:52:07;20.03;;;9.63;;
19251;SDS011;9760;50.944;5.304;2023-04-03T04:54:32;21.53;;;9.80;;
19251;SDS011;9760;50.944;5.304;2023-04-03T04:56:58;20.40;;;9.90;;
19251;SDS011;9760;50.944;5.304;2023-04-03T04:59:24;17.83;;;9.50;;
19251;SDS011;9760;50.944;5.304;2023-04-03T05:01:49;21.63;;;9.17;;
19251;SDS011;9760;50.944;5.304;2023-04-03T05:04:15;18.40;;;9.87;;
19251;SDS011;9760;50.944;5.304;2023-04-03T05:06:42;19.37;;;9.93;;
19251;SDS011;9760;50.944;5.304;2023-04-03T05:09:07;18.73;;;10.10;;
19251;SDS011;9760;50.944;5.304;2023-04-03T05:11:34;20.60;;;10.23;;
19251;SDS011;9760;50.944;5.304;2023-04-03T05:14:01;17.63;;;11.03;;
19251;SDS011;9760;50.944;5.304;2023-04-03T05:16:26;21.00;;;10.73;;
19251;SDS011;9760;50.944;5.304;2023-04-03T05:18:52;24.53;;;11.17;;
19251;SDS011;9760;50.944;5.304;2023-04-03T05:21:17;25.17;;;11.37;;
19251;SDS011;9760;50.944;5.304;2023-04-03T05:23:43;22.23;;;12.27;;
19251;SDS011;9760;50.944;5.304;2023-04-03T05:26:09;22.37;;;12.23;;
19251;SDS011;9760;50.944;5.304;2023-04-03T05:28:35;22.47;;;11.00;;
19251;SDS011;9760;50.944;5.304;2023-04-03T05:31:01;21.13;;;11.47;;
19251;SDS011;9760;50.944;5.304;2023-04-03T05:33:27;21.60;;;11.97;;
19251;SDS011;9760;50.944;5.304;2023-04-03T05:35:53;24.50;;;12.27;;
19251;SDS011;9760;50.944;5.304;2023-04-03T05:38:19;20.37;;;11.90;;
19251;SDS011;9760;50.944;5.304;2023-04-03T05:40:45;22.07;;;12.00;;
19251;SDS011;9760;50.944;5.304;2023-04-03T05:43:11;30.33;;;12.37;;
19251;SDS011;9760;50.944;5.304;2023-04-03T05:45:37;23.83;;;12.37;;
19251;SDS011;9760;50.944;5.304;2023-04-03T05:48:02;25.53;;;12.70;;
19251;SDS011;9760;50.944;5.304;2023-04-03T05:50:28;30.50;;;12.90;;
19251;SDS011;9760;50.944;5.304;2023-04-03T05:52:55;31.93;;;13.07;;
19251;SDS011;9760;50.944;5.304;2023-04-03T05:55:23;20.80;;;11.50;;
19251;SDS011;9760;50.944;5.304;2023-04-03T05:57:49;24.73;;;12.67;;
19251;SDS011;9760;50.944;5.304;2023-04-03T06:00:15;30.50;;;12.03;;
19251;SDS011;9760;50.944;5.304;2023-04-03T06:02:41;24.53;;;13.07;;
19251;SDS011;9760;50.944;5.304;2023-04-03T06:05:08;26.03;;;11.00;;
19251;SDS011;9760;50.944;5.304;2023-04-03T06:07:36;22.40;;;11.00;;
19251;SDS011;9760;50.944;5.304;2023-04-03T06:10:02;18.50;;;11.00;;
19251;SDS011;9760;50.944;5.304;2023-04-03T06:12:28;21.33;;;10.93;;
19251;SDS011;9760;50.944;5.304;2023-04-03T06:14:54;15.17;;;10.20;;
19251;SDS011;9760;50.944;5.304;2023-04-03T06:17:20;20.97;;;10.50;;
19251;SDS011;9760;50.944;5.304;2023-04-03T06:19:46;19.93;;;10.00;;
19251;SDS011;9760;50.944;5.304;2023-04-03T06:22:12;19.60;;;9.30;;
19251;SDS011;9760;50.944;5.304;2023-04-03T06:24:38;17.77;;;9.30;;
19251;SDS011;9760;50.944;5.304;2023-04-03T06:27:04;20.57;;;9.20;;
19251;SDS011;9760;50.944;5.304;2023-04-03T06:29:30;19.73;;;9.40;;
19251;SDS011;9760;50.944;5.304;2023-04-03T06:31:56;18.67;;;8.60;;
19251;SDS011;9760;50.944;5.304;2023-04-03T06:34:22;14.60;;;8.33;;
19251;SDS011;9760;50.944;5.304;2023-04-03T06:36:47;17.17;;;7.50;;
19251;SDS011;9760;50.944;5.304;2023-04-03T06:39:17;23.93;;;8.63;;
19251;SDS011;9760;50.944;5.304;2023-04-03T06:41:48;17.37;;;7.93;;
19251;SDS011;9760;50.944;5.304;2023-04-03T06:44:15;17.20;;;8.10;;
19251;SDS011;9760;50.944;5.304;2023-04-03T06:46:41;14.93;;;7.67;;
19251;SDS011;9760;50.944;5.304;2023-04-03T06:49:07;20.60;;;8.23;;
19251;SDS011;9760;50.944;5.304;2023-04-03T06:51:33;17.30;;;6.83;;
19251;SDS011;9760;50.944;5.304;2023-04-03T06:54:00;18.33;;;6.93;;
19251;SDS011;9760;50.944;5.304;2023-04-03T06:56:27;14.47;;;7.30;;
19251;SDS011;9760;50.944;5.304;2023-04-03T06:58:53;11.60;;;6.07;;
19251;SDS011;9760;50.944;5.304;2023-04-03T07:01:22;12.70;;;6.47;;
19251;SDS011;9760;50.944;5.304;2023-04-03T07:03:50;13.83;;;6.63;;
19251;SDS011;9760;50.944;5.304;2023-04-03T07:06:16;15.90;;;5.53;;
19251;SDS011;9760;50.944;5.304;2023-04-03T07:08:43;10.40;;;5.73;;
19251;SDS011;9760;50.944;5.304;2023-04-03T07:11:09;11.87;;;5.67;;
19251;SDS011;9760;50.944;5.304;2023-04-03T07:13:36;15.00;;;5.00;;
19251;SDS011;9760;50.944;5.304;2023-04-03T07:16:02;11.60;;;5.10;;
19251;SDS011;9760;50.944;5.304;2023-04-03T07:18:31;9.30;;;4.67;;
19251;SDS011;9760;50.944;5.304;2023-04-03T07:20:57;8.53;;;4.83;;
19251;SDS011;9760;50.944;5.304;2023-04-03T07:23:23;13.37;;;5.10;;
19251;SDS011;9760;50.944;5.304;2023-04-03T07:25:49;12.07;;;4.97;;
19251;SDS011;9760;50.944;5.304;2023-04-03T07:28:17;10.07;;;4.37;;
19251;SDS011;9760;50.944;5.304;2023-04-03T07:30:48;11.83;;;4.53;;
19251;SDS011;9760;50.944;5.304;2023-04-03T07:33:18;13.93;;;4.70;;
19251;SDS011;9760;50.944;5.304;2023-04-03T07:35:45;10.77;;;4.73;;
19251;SDS011;9760;50.944;5.304;2023-04-03T07:38:11;12.07;;;4.40;;
19251;SDS011;9760;50.944;5.304;2023-04-03T07:40:37;9.90;;;4.20;;
19251;SDS011;9760;50.944;5.304;2023-04-03T07:43:03;11.60;;;4.00;;
19251;SDS011;9760;50.944;5.304;2023-04-03T07:45:30;7.93;;;3.87;;
19251;SDS011;9760;50.944;5.304;2023-04-03T07:47:56;15.20;;;4.30;;
19251;SDS011;9760;50.944;5.304;2023-04-03T07:50:22;9.03;;;4.13;;
19251;SDS011;9760;50.944;5.304;2023-04-03T07:52:48;10.77;;;3.87;;
19251;SDS011;9760;50.944;5.304;2023-04-03T07:55:15;8.40;;;3.60;;
19251;SDS011;9760;50.944;5.304;2023-04-03T07:57:41;8.87;;;3.47;;
19251;SDS011;9760;50.944;5.304;2023-04-03T08:00:07;11.30;;;3.70;;
19251;SDS011;9760;50.944;5.304;2023-04-03T08:02:34;10.07;;;4.23;;
19251;SDS011;9760;50.944;5.304;2023-04-03T08:04:59;10.40;;;3.83;;
19251;SDS011;9760;50.944;5.304;2023-04-03T08:07:25;14.93;;;3.30;;
19251;SDS011;9760;50.944;5.304;2023-04-03T08:09:51;9.90;;;2.70;;
19251;SDS011;9760;50.944;5.304;2023-04-03T08:12:17;9.67;;;3.57;;
19251;SDS011;9760;50.944;5.304;2023-04-03T08:14:43;9.57;;;3.30;;
19251;SDS011;9760;50.944;5.304;2023-04-03T08:17:09;6.40;;;2.90;;
19251;SDS011;9760;50.944;5.304;2023-04-03T08:19:37;7.87;;;3.07;;
19251;SDS011;9760;50.944;5.304;2023-04-03T08:22:03;11.07;;;3.00;;
19251;SDS011;9760;50.944;5.304;2023-04-03T08:24:30;9.63;;;2.93;;
19251;SDS011;9760;50.944;5.304;2023-04-03T08:26:56;8.43;;;2.50;;
19251;SDS011;9760;50.944;5.304;2023-04-03T08:29:22;7.13;;;2.23;;
19251;SDS011;9760;50.944;5.304;2023-04-03T08:31:48;8.37;;;2.60;;
19251;SDS011;9760;50.944;5.304;2023-04-03T08:34:15;10.00;;;2.90;;
19251;SDS011;9760;50.944;5.304;2023-04-03T08:36:41;8.10;;;3.07;;
19251;SDS011;9760;50.944;5.304;2023-04-03T08:39:07;7.37;;;2.70;;
19251;SDS011;9760;50.944;5.304;2023-04-03T08:41:37;8.27;;;2.60;;
19251;SDS011;9760;50.944;5.304;2023-04-03T08:49:47;8.10;;;2.00;;
19251;SDS011;9760;50.944;5.304;2023-04-03T08:52:17;6.90;;;2.50;;
19251;SDS011;9760;50.944;5.304;2023-04-03T08:54:50;10.97;;;2.83;;
19251;SDS011;9760;50.944;5.304;2023-04-03T08:57:53;7.63;;;2.77;;
19251;SDS011;9760;50.944;5.304;2023-04-03T09:02:51;7.80;;;2.10;;
19251;SDS011;9760;50.944;5.304;2023-04-03T09:05:19;13.50;;;2.50;;
19251;SDS011;9760;50.944;5.304;2023-04-03T09:07:58;7.57;;;1.90;;
19251;SDS011;9760;50.944;5.304;2023-04-03T09:10:39;7.87;;;1.90;;
19251;SDS011;9760;50.944;5.304;2023-04-03T09:19:38;4.83;;;1.33;;
19251;SDS011;9760;50.944;5.304;2023-04-03T09:21:56;4.53;;;1.73;;
19251;SDS011;9760;50.944;5.304;2023-04-03T09:24:24;9.40;;;1.93;;
19251;SDS011;9760;50.944;5.304;2023-04-03T09:26:51;10.23;;;2.13;;
19251;SDS011;9760;50.944;5.304;2023-04-03T09:29:19;5.97;;;1.80;;
19251;SDS011;9760;50.944;5.304;2023-04-03T09:31:52;6.93;;;2.17;;
19251;SDS011;9760;50.944;5.304;2023-04-03T09:36:56;9.03;;;1.87;;
19251;SDS011;9760;50.944;5.304;2023-04-03T09:39:25;4.50;;;1.73;;
19251;SDS011;9760;50.944;5.304;2023-04-03T09:41:57;5.63;;;2.07;;
19251;SDS011;9760;50.944;5.304;2023-04-03T09:44:36;5.47;;;1.90;;
19251;SDS011;9760;50.944;5.304;2023-04-03T09:52:38;4.03;;;1.93;;
19251;SDS011;9760;50.944;5.304;2023-04-03T09:55:08;5.53;;;2.20;;
19251;SDS011;9760;50.944;5.304;2023-04-03T09:57:46;10.00;;;1.93;;
19251;SDS011;9760;50.944;5.304;2023-04-03T10:00:23;6.57;;;1.47;;
19251;SDS011;9760;50.944;5.304;2023-04-03T10:02:51;13.70;;;2.83;;
19251;SDS011;9760;50.944;5.304;2023-04-03T10:05:42;6.60;;;2.20;;
19251;SDS011;9760;50.944;5.304;2023-04-03T10:10:43;3.93;;;1.60;;
19251;SDS011;9760;50.944;5.304;2023-04-03T10:13:18;3.70;;;1.73;;
19251;SDS011;9760;50.944;5.304;2023-04-03T10:15:56;5.87;;;1.57;;
19251;SDS011;9760;50.944;5.304;2023-04-03T10:21:33;3.57;;;1.60;;
19251;SDS011;9760;50.944;5.304;2023-04-03T10:24:13;6.90;;;1.47;;
19251;SDS011;9760;50.944;5.304;2023-04-03T10:30:03;5.10;;;1.30;;
19251;SDS011;9760;50.944;5.304;2023-04-03T10:32:52;4.17;;;1.10;;
19251;SDS011;9760;50.944;5.304;2023-04-03T10:35:58;3.17;;;1.53;;
19251;SDS011;9760;50.944;5.304;2023-04-03T10:46:48;4.30;;;1.50;;
19251;SDS011;9760;50.944;5.304;2023-04-03T10:52:22;6.70;;;1.43;;
19251;SDS011;9760;50.944;5.304;2023-04-03T10:57:35;3.47;;;1.50;;
19251;SDS011;9760;50.944;5.304;2023-04-03T11:00:06;4.77;;;1.47;;
19251;SDS011;9760;50.944;5.304;2023-04-03T11:02:48;4.57;;;1.50;;
19251;SDS011;9760;50.944;5.304;2023-04-03T11:05:18;5.17;;;1.00;;
19251;SDS011;9760;50.944;5.304;2023-04-03T11:08:10;2.63;;;0.83;;
19251;SDS011;9760;50.944;5.304;2023-04-03T11:11:05;1.40;;;0.80;;
19251;SDS011;9760;50.944;5.304;2023-04-03T11:13:42;1.53;;;0.70;;
19251;SDS011;9760;50.944;5.304;2023-04-03T11:16:18;2.07;;;0.80;;
19251;SDS011;9760;50.944;5.304;2023-04-03T11:18:49;2.67;;;0.83;;
19251;SDS011;9760;50.944;5.304;2023-04-03T11:21:38;1.80;;;0.90;;
19251;SDS011;9760;50.944;5.304;2023-04-03T11:24:32;1.40;;;0.80;;
19251;SDS011;9760;50.944;5.304;2023-04-03T11:27:00;2.63;;;0.83;;
19251;SDS011;9760;50.944;5.304;2023-04-03T11:29:34;2.93;;;1.00;;
19251;SDS011;9760;50.944;5.304;2023-04-03T11:34:47;1.93;;;0.90;;
19251;SDS011;9760;50.944;5.304;2023-04-03T11:39:44;3.50;;;1.03;;
19251;SDS011;9760;50.944;5.304;2023-04-03T11:44:48;3.27;;;1.03;;
19251;SDS011;9760;50.944;5.304;2023-04-03T11:47:43;1.53;;;0.80;;
19251;SDS011;9760;50.944;5.304;2023-04-03T11:50:30;4.47;;;1.13;;
19251;SDS011;9760;50.944;5.304;2023-04-03T12:40:42;4.73;;;1.30;;
19251;SDS011;9760;50.944;5.304;2023-04-03T12:48:15;8.07;;;1.70;;
19251;SDS011;9760;50.944;5.304;2023-04-03T12:50:43;6.63;;;1.60;;
19251;SDS011;9760;50.944;5.304;2023-04-03T12:55:38;5.67;;;1.13;;
19251;SDS011;9760;50.944;5.304;2023-04-03T12:58:13;3.00;;;1.10;;
19251;SDS011;9760;50.944;5.304;2023-04-03T13:01:08;5.77;;;1.40;;
19251;SDS011;9760;50.944;5.304;2023-04-03T13:03:37;3.60;;;1.20;;
19251;SDS011;9760;50.944;5.304;2023-04-03T13:06:05;4.57;;;1.27;;
19251;SDS011;9760;50.944;5.304;2023-04-03T13:08:31;4.27;;;1.53;;
19251;SDS011;9760;50.944;5.304;2023-04-03T13:11:08;5.00;;;1.07;;
19251;SDS011;9760;50.944;5.304;2023-04-03T13:13:36;2.90;;;1.30;;
19251;SDS011;9760;50.944;5.304;2023-04-03T13:16:10;5.17;;;1.33;;
19251;SDS011;9760;50.944;5.304;2023-04-03T13:18:37;5.30;;;1.50;;
19251;SDS011;9760;50.944;5.304;2023-04-03T13:21:04;3.53;;;1.30;;
19251;SDS011;9760;50.944;5.304;2023-04-03T13:23:38;2.80;;;1.20;;
19251;SDS011;9760;50.944;5.304;2023-04-03T13:26:07;14.17;;;1.73;;
19251;SDS011;9760;50.944;5.304;2023-04-03T13:28:34;2.60;;;1.60;;
19251;SDS011;9760;50.944;5.304;2023-04-03T13:33:39;4.63;;;1.60;;
19251;SDS011;9760;50.944;5.304;2023-04-03T13:36:31;3.63;;;1.30;;
19251;SDS011;9760;50.944;5.304;2023-04-03T13:39:25;4.83;;;1.50;;
19251;SDS011;9760;50.944;5.304;2023-04-03T13:41:57;4.40;;;1.77;;
19251;SDS011;9760;50.944;5.304;2023-04-03T13:44:36;4.10;;;1.50;;
19251;SDS011;9760;50.944;5.304;2023-04-03T13:52:01;4.93;;;1.80;;
19251;SDS011;9760;50.944;5.304;2023-04-03T13:54:48;5.10;;;1.60;;
19251;SDS011;9760;50.944;5.304;2023-04-03T13:57:19;4.80;;;1.57;;
19251;SDS011;9760;50.944;5.304;2023-04-03T13:59:45;7.70;;;1.57;;
19251;SDS011;9760;50.944;5.304;2023-04-03T14:02:16;3.00;;;1.37;;
19251;SDS011;9760;50.944;5.304;2023-04-03T14:04:47;2.43;;;1.20;;
19251;SDS011;9760;50.944;5.304;2023-04-03T14:07:15;5.37;;;1.63;;
19251;SDS011;9760;50.944;5.304;2023-04-03T14:09:43;4.53;;;1.60;;
19251;SDS011;9760;50.944;5.304;2023-04-03T14:12:13;5.40;;;1.70;;
19251;SDS011;9760;50.944;5.304;2023-04-03T14:14:44;4.40;;;1.77;;
19251;SDS011;9760;50.944;5.304;2023-04-03T14:17:17;7.87;;;2.00;;
19251;SDS011;9760;50.944;5.304;2023-04-03T14:19:46;3.30;;;1.80;;
19251;SDS011;9760;50.944;5.304;2023-04-03T14:22:17;7.63;;;1.70;;
19251;SDS011;9760;50.944;5.304;2023-04-03T14:24:43;4.57;;;1.60;;
19251;SDS011;9760;50.944;5.304;2023-04-03T14:27:27;3.73;;;2.07;;
19251;SDS011;9760;50.944;5.304;2023-04-03T14:30:17;4.10;;;1.53;;
19251;SDS011;9760;50.944;5.304;2023-04-03T14:32:46;2.67;;;1.33;;
19251;SDS011;9760;50.944;5.304;2023-04-03T14:35:13;3.50;;;1.43;;
19251;SDS011;9760;50.944;5.304;2023-04-03T14:37:39;8.50;;;1.73;;
19251;SDS011;9760;50.944;5.304;2023-04-03T14:40:06;5.77;;;1.50;;
19251;SDS011;9760;50.944;5.304;2023-04-03T14:42:35;5.57;;;1.60;;
19251;SDS011;9760;50.944;5.304;2023-04-03T14:45:03;3.17;;;1.70;;
19251;SDS011;9760;50.944;5.304;2023-04-03T14:47:31;4.73;;;1.50;;
19251;SDS011;9760;50.944;5.304;2023-04-03T14:49:57;4.17;;;1.77;;
19251;SDS011;9760;50.944;5.304;2023-04-03T14:52:30;5.17;;;1.73;;
19251;SDS011;9760;50.944;5.304;2023-04-03T14:54:58;4.13;;;1.90;;
19251;SDS011;9760;50.944;5.304;2023-04-03T14:57:25;5.23;;;1.73;;
19251;SDS011;9760;50.944;5.304;2023-04-03T14:59:53;5.27;;;1.70;;
19251;SDS011;9760;50.944;5.304;2023-04-03T15:02:29;5.67;;;1.80;;
19251;SDS011;9760;50.944;5.304;2023-04-03T15:05:00;2.33;;;1.33;;
19251;SDS011;9760;50.944;5.304;2023-04-03T15:07:29;5.17;;;1.53;;
19251;SDS011;9760;50.944;5.304;2023-04-03T15:09:57;3.10;;;1.30;;
19251;SDS011;9760;50.944;5.304;2023-04-03T15:12:26;3.57;;;1.40;;
19251;SDS011;9760;50.944;5.304;2023-04-03T15:14:51;5.23;;;1.37;;
19251;SDS011;9760;50.944;5.304;2023-04-03T15:17:18;7.63;;;1.77;;
19251;SDS011;9760;50.944;5.304;2023-04-03T15:19:46;8.47;;;1.70;;
19251;SDS011;9760;50.944;5.304;2023-04-03T15:22:16;6.90;;;1.80;;
19251;SDS011;9760;50.944;5.304;2023-04-03T15:24:44;6.37;;;1.37;;
19251;SDS011;9760;50.944;5.304;2023-04-03T15:27:10;3.80;;;1.60;;
19251;SDS011;9760;50.944;5.304;2023-04-03T15:29:38;5.37;;;1.70;;
19251;SDS011;9760;50.944;5.304;2023-04-03T15:32:05;2.63;;;1.27;;
19251;SDS011;9760;50.944;5.304;2023-04-03T15:34:31;5.63;;;2.10;;
19251;SDS011;9760;50.944;5.304;2023-04-03T15:36:57;3.00;;;1.50;;
19251;SDS011;9760;50.944;5.304;2023-04-03T15:39:24;4.77;;;1.37;;
19251;SDS011;9760;50.944;5.304;2023-04-03T15:41:51;6.73;;;1.43;;
19251;SDS011;9760;50.944;5.304;2023-04-03T15:44:17;3.77;;;1.37;;
19251;SDS011;9760;50.944;5.304;2023-04-03T15:46:43;4.87;;;1.30;;
19251;SDS011;9760;50.944;5.304;2023-04-03T15:49:10;8.70;;;1.73;;
19251;SDS011;9760;50.944;5.304;2023-04-03T15:51:36;3.80;;;1.60;;
19251;SDS011;9760;50.944;5.304;2023-04-03T15:54:02;6.10;;;1.40;;
19251;SDS011;9760;50.944;5.304;2023-04-03T15:56:28;5.60;;;1.60;;
19251;SDS011;9760;50.944;5.304;2023-04-03T15:58:53;4.13;;;1.20;;
19251;SDS011;9760;50.944;5.304;2023-04-03T16:01:19;5.97;;;1.53;;
19251;SDS011;9760;50.944;5.304;2023-04-03T16:03:45;6.70;;;2.03;;
19251;SDS011;9760;50.944;5.304;2023-04-03T16:06:15;4.00;;;1.23;;
19251;SDS011;9760;50.944;5.304;2023-04-03T16:08:42;3.40;;;1.27;;
19251;SDS011;9760;50.944;5.304;2023-04-03T16:11:08;1.87;;;1.00;;
19251;SDS011;9760;50.944;5.304;2023-04-03T16:13:34;5.13;;;1.30;;
19251;SDS011;9760;50.944;5.304;2023-04-03T16:15:59;6.40;;;1.40;;
19251;SDS011;9760;50.944;5.304;2023-04-03T16:18:26;3.30;;;1.33;;
19251;SDS011;9760;50.944;5.304;2023-04-03T16:20:52;4.27;;;1.60;;
19251;SDS011;9760;50.944;5.304;2023-04-03T16:23:18;5.20;;;1.50;;
19251;SDS011;9760;50.944;5.304;2023-04-03T16:25:44;3.87;;;1.33;;
19251;SDS011;9760;50.944;5.304;2023-04-03T16:28:12;4.23;;;1.23;;
19251;SDS011;9760;50.944;5.304;2023-04-03T16:30:39;2.37;;;1.47;;
19251;SDS011;9760;50.944;5.304;2023-04-03T16:33:06;11.50;;;1.47;;
19251;SDS011;9760;50.944;5.304;2023-04-03T16:35:31;5.50;;;1.33;;
19251;SDS011;9760;50.944;5.304;2023-04-03T16:37:57;5.37;;;1.57;;
19251;SDS011;9760;50.944;5.304;2023-04-03T16:40:23;2.43;;;1.43;;
19251;SDS011;9760;50.944;5.304;2023-04-03T16:42:49;3.00;;;1.20;;
19251;SDS011;9760;50.944;5.304;2023-04-03T16:45:15;2.90;;;1.50;;
19251;SDS011;9760;50.944;5.304;2023-04-03T16:47:40;5.57;;;1.50;;
19251;SDS011;9760;50.944;5.304;2023-04-03T16:50:06;2.97;;;1.40;;
19251;SDS011;9760;50.944;5.304;2023-04-03T16:52:32;4.10;;;1.40;;
19251;SDS011;9760;50.944;5.304;2023-04-03T16:54:58;2.47;;;1.50;;
19251;SDS011;9760;50.944;5.304;2023-04-03T16:57:23;3.47;;;1.40;;
19251;SDS011;9760;50.944;5.304;2023-04-03T16:59:50;4.07;;;1.43;;
19251;SDS011;9760;50.944;5.304;2023-04-03T17:02:16;2.87;;;1.30;;
19251;SDS011;9760;50.944;5.304;2023-04-03T17:04:42;2.87;;;1.20;;
19251;SDS011;9760;50.944;5.304;2023-04-03T17:07:07;4.80;;;1.60;;
19251;SDS011;9760;50.944;5.304;2023-04-03T17:09:33;9.00;;;1.50;;